Time;durP1;ratioP1;P1;durP2;ratioP2;P2;SDS_P1;SDS_P2;PMS_P1;PMS_P2;Temp;Humidity;BMP_temperature;BMP_pressure;BME280_temperature;BME280_humidity;BME280_pressure;Samples;Min_cycle;Max_cycle;Signal;HPM_P1;HPM_P2
2021/06/08 00:01:57;;;;;;;30.67;27.30;;;;;;;16.72;100.00;155657.97;5068452;28;20493;-77
2021/06/08 00:04:32;;;;;;;35.40;26.73;;;;;;;16.72;100.00;155656.66;5054160;28;20451;-77
2021/06/08 00:07:07;;;;;;;31.43;27.97;;;;;;;16.71;100.00;155655.34;5041781;28;20468;-77
2021/06/08 00:09:42;;;;;;;29.37;25.77;;;;;;;16.70;100.00;155651.47;5052628;28;20462;-77
2021/06/08 00:12:19;;;;;;;31.13;26.93;;;;;;;16.67;100.00;155643.66;5055547;28;20934;-77
2021/06/08 00:14:54;;;;;;;29.80;25.50;;;;;;;16.67;100.00;155644.97;5055192;28;20481;-77
2021/06/08 00:17:29;;;;;;;32.40;28.03;;;;;;;16.67;100.00;155644.97;5051249;28;20482;-77
2021/06/08 00:20:05;;;;;;;30.53;24.80;;;;;;;16.65;100.00;155638.47;5039238;28;20838;-77
2021/06/08 00:22:40;;;;;;;31.63;26.43;;;;;;;16.68;100.00;155647.53;5061512;28;20447;-77
2021/06/08 00:25:15;;;;;;;31.37;26.63;;;;;;;16.66;100.00;155642.34;5055626;28;20470;-77
2021/06/08 00:27:52;;;;;;;29.60;25.77;;;;;;;16.66;100.00;155641.03;5058240;28;20450;-77
2021/06/08 00:30:28;;;;;;;29.23;25.67;;;;;;;16.64;100.00;155635.84;5061190;28;20455;-77
2021/06/08 00:33:03;;;;;;;29.93;24.50;;;;;;;16.66;100.00;155641.03;5082794;28;20446;-77
2021/06/08 00:35:38;;;;;;;27.80;23.40;;;;;;;16.65;100.00;155638.47;5053702;28;20454;-77
2021/06/08 00:38:13;;;;;;;30.20;24.13;;;;;;;16.64;100.00;155637.16;5050914;28;20426;-77
2021/06/08 00:40:48;;;;;;;32.27;25.50;;;;;;;16.66;100.00;155641.03;5104004;28;20477;-77
2021/06/08 00:43:25;;;;;;;31.80;26.87;;;;;;;16.65;100.00;155639.78;5071567;28;20528;-77
2021/06/08 00:46:00;;;;;;;28.00;25.00;;;;;;;16.66;100.00;155641.03;5058882;28;20465;-77
2021/06/08 00:48:35;;;;;;;30.03;25.83;;;;;;;16.66;100.00;155642.34;5062962;28;20531;-77
2021/06/08 00:51:11;;;;;;;29.73;25.13;;;;;;;16.64;100.00;155637.16;5052653;28;20438;-77
2021/06/08 00:53:46;;;;;;;33.20;25.97;;;;;;;16.61;100.00;155629.34;5054912;28;20531;-77
2021/06/08 00:56:21;;;;;;;27.90;24.80;;;;;;;16.62;100.00;155631.97;5069785;28;20449;-77
2021/06/08 00:58:57;;;;;;;28.60;24.20;;;;;;;16.63;100.00;155634.53;5065656;28;20864;-77
2021/06/08 01:01:33;;;;;;;30.57;24.43;;;;;;;16.65;100.00;155638.47;5062011;28;20443;-77
2021/06/08 01:04:09;;;;;;;31.50;27.73;;;;;;;16.64;100.00;155637.16;5054958;28;20457;-77
2021/06/08 01:06:47;;;;;;;27.67;24.73;;;;;;;16.65;100.00;155639.78;5088233;28;20855;-77
2021/06/08 01:09:23;;;;;;;29.50;25.00;;;;;;;16.67;100.00;155644.97;5056284;28;20455;-77
2021/06/08 01:11:58;;;;;;;27.27;23.53;;;;;;;16.66;100.00;155642.34;5068465;28;20426;-77
2021/06/08 01:14:34;;;;;;;30.87;25.83;;;;;;;16.63;100.00;155633.22;5073216;28;20929;-77
2021/06/08 01:17:09;;;;;;;32.27;27.80;;;;;;;16.64;100.00;155635.84;5056791;28;20438;-77
2021/06/08 01:19:44;;;;;;;29.80;24.80;;;;;;;16.61;100.00;155628.03;5066620;28;20530;-77
2021/06/08 01:22:20;;;;;;;29.50;25.20;;;;;;;16.67;100.00;155643.66;5062743;28;20758;-77
2021/06/08 01:24:56;;;;;;;29.13;25.83;;;;;;;16.63;100.00;155634.53;5057394;28;20469;-77
2021/06/08 01:27:31;;;;;;;27.83;24.43;;;;;;;16.65;100.00;155639.78;5065185;28;20536;-77
2021/06/08 01:30:07;;;;;;;27.50;24.57;;;;;;;16.64;100.00;155637.16;5058318;28;20453;-77
2021/06/08 01:32:43;;;;;;;29.10;24.50;;;;;;;16.62;100.00;155630.66;5056309;28;20442;-77
2021/06/08 01:35:19;;;;;;;27.50;22.40;;;;;;;16.62;100.00;155631.97;5054908;28;20443;-77
2021/06/08 01:37:55;;;;;;;26.80;22.23;;;;;;;16.65;100.00;155639.78;5058881;28;20454;-77
2021/06/08 01:40:30;;;;;;;28.50;24.27;;;;;;;16.65;100.00;155639.78;5069810;28;20493;-77
2021/06/08 01:43:05;;;;;;;28.63;24.80;;;;;;;16.67;100.00;155643.66;5074965;28;20442;-77
2021/06/08 01:45:41;;;;;;;27.30;24.20;;;;;;;16.67;100.00;155643.66;5073541;28;20481;-77
2021/06/08 01:48:16;;;;;;;27.60;24.50;;;;;;;16.64;100.00;155637.16;5058856;28;20816;-77
2021/06/08 01:50:52;;;;;;;31.77;26.30;;;;;;;16.65;100.00;155639.78;5056993;28;20442;-77
2021/06/08 01:53:36;;;;;;;26.90;23.20;;;;;;;16.66;100.00;155642.34;5058183;28;20475;-77
2021/06/08 01:56:13;;;;;;;29.33;24.30;;;;;;;16.68;100.00;155647.53;5064744;28;20954;-77
2021/06/08 01:58:55;;;;;;;31.90;25.07;;;;;;;16.65;100.00;155639.78;5085198;28;20981;-77
2021/06/08 02:01:40;;;;;;;29.37;26.10;;;;;;;16.64;100.00;155637.16;5087958;28;20868;-77
2021/06/08 02:04:22;;;;;;;29.33;25.20;;;;;;;16.66;100.00;155642.34;5048621;28;20455;-77
2021/06/08 02:07:07;;;;;;;28.50;24.90;;;;;;;16.66;100.00;155642.34;5069974;28;20525;-77
2021/06/08 02:09:50;;;;;;;30.17;25.07;;;;;;;16.63;100.00;155634.53;5061181;28;20451;-77
2021/06/08 02:12:25;;;;;;;30.70;25.90;;;;;;;16.64;100.00;155637.16;5065818;28;20530;-77
2021/06/08 02:15:06;;;;;;;26.37;23.50;;;;;;;16.66;100.00;155641.03;5087386;28;20496;-77
2021/06/08 02:17:44;;;;;;;29.60;25.70;;;;;;;16.63;100.00;155633.22;5053358;28;20922;-77
2021/06/08 02:20:21;;;;;;;31.20;26.00;;;;;;;16.64;100.00;155635.84;5046192;28;20478;-77
2021/06/08 02:22:58;;;;;;;30.17;26.20;;;;;;;16.64;100.00;155635.84;5057120;28;20438;-77
2021/06/08 02:25:35;;;;;;;28.87;24.03;;;;;;;16.63;100.00;155633.22;5068723;28;20482;-77
2021/06/08 02:28:12;;;;;;;30.93;25.17;;;;;;;16.65;100.00;155639.78;5068984;28;20444;-77
2021/06/08 02:30:48;;;;;;;30.57;26.53;;;;;;;16.66;100.00;155642.34;5070821;28;20469;-77
2021/06/08 02:33:24;;;;;;;33.40;27.77;;;;;;;16.63;100.00;155634.53;5049677;28;20566;-77
2021/06/08 02:36:01;;;;;;;31.40;26.27;;;;;;;16.60;100.00;155625.47;5054902;28;20449;-77
2021/06/08 02:38:36;;;;;;;29.87;26.53;;;;;;;16.62;100.00;155631.97;5071616;28;20450;-77
2021/06/08 02:41:13;;;;;;;34.40;27.60;;;;;;;16.61;100.00;155629.34;5067808;28;20439;-77
2021/06/08 02:43:48;;;;;;;27.27;24.33;;;;;;;16.63;100.00;155634.53;5070430;28;21899;-77
2021/06/08 02:46:24;;;;;;;30.30;24.77;;;;;;;16.62;100.00;155631.97;5055938;28;20443;-77
2021/06/08 02:49:00;;;;;;;30.20;24.83;;;;;;;16.60;100.00;155626.72;5090196;28;20457;-78
2021/06/08 02:51:36;;;;;;;33.40;27.50;;;;;;;16.62;100.00;155631.97;5053425;28;20821;-77
2021/06/08 02:54:12;;;;;;;30.47;26.23;;;;;;;16.58;100.00;155621.53;5058000;28;20446;-77
2021/06/08 02:56:49;;;;;;;30.83;26.80;;;;;;;16.57;100.00;155618.97;5052489;28;20443;-77
2021/06/08 02:59:26;;;;;;;32.37;27.33;;;;;;;16.54;100.00;155611.16;5069777;28;20486;-77
2021/06/08 03:02:03;;;;;;;32.40;27.17;;;;;;;16.56;100.00;155615.03;5065458;28;20437;-77
2021/06/08 03:04:43;;;;;;;31.57;26.80;;;;;;;16.56;100.00;155616.34;5068760;28;20508;-77
2021/06/08 03:07:19;;;;;;;34.00;27.77;;;;;;;16.56;100.00;155615.03;5071235;28;20458;-77
2021/06/08 03:09:58;;;;;;;31.30;26.20;;;;;;;16.53;100.00;155608.53;5071844;28;20454;-77
2021/06/08 03:12:38;;;;;;;33.47;26.60;;;;;;;16.53;100.00;155608.53;5069978;28;20849;-77
2021/06/08 03:15:13;;;;;;;29.83;25.53;;;;;;;16.52;100.00;155605.88;5073505;28;20533;-77
2021/06/08 03:17:49;;;;;;;33.00;27.40;;;;;;;16.51;100.00;155603.28;5071429;28;20445;-77
2021/06/08 03:20:28;;;;;;;33.67;28.10;;;;;;;16.53;100.00;155608.53;5071125;28;20481;-77
2021/06/08 03:23:05;;;;;;;33.70;26.50;;;;;;;16.52;100.00;155605.88;5057693;28;20442;-77
2021/06/08 03:25:41;;;;;;;32.03;27.50;;;;;;;16.51;100.00;155603.28;5069751;28;22309;-77
2021/06/08 03:28:20;;;;;;;35.53;26.77;;;;;;;16.50;100.00;155600.66;5056427;28;20455;-77
2021/06/08 03:30:55;;;;;;;31.13;27.40;;;;;;;16.48;100.00;155594.16;5052040;28;20934;-77
2021/06/08 03:33:31;;;;;;;34.73;28.37;;;;;;;16.48;100.00;155595.47;5060626;28;20528;-77
2021/06/08 03:36:07;;;;;;;35.23;27.10;;;;;;;16.48;100.00;155595.47;5067671;28;20473;-77
2021/06/08 03:38:43;;;;;;;30.50;26.20;;;;;;;16.46;100.00;155590.28;5063080;28;21092;-78
2021/06/08 03:41:19;;;;;;;33.97;26.80;;;;;;;16.46;100.00;155590.28;5070799;28;20952;-77
2021/06/08 03:43:55;;;;;;;37.83;29.57;;;;;;;16.45;100.00;155587.66;5043781;28;20505;-78
2021/06/08 03:46:31;;;;;;;35.53;27.90;;;;;;;16.41;100.00;155577.28;5051504;28;20435;-77
2021/06/08 03:49:06;;;;;;;33.80;27.47;;;;;;;16.44;100.00;155585.09;5072294;28;20442;-78
2021/06/08 03:51:42;;;;;;;32.63;29.00;;;;;;;16.44;100.00;155586.38;5062816;28;20441;-77
2021/06/08 03:54:17;;;;;;;31.90;26.87;;;;;;;16.43;100.00;155582.47;5048934;28;20451;-77
2021/06/08 03:56:54;;;;;;;33.17;26.93;;;;;;;16.42;100.00;155579.88;5056123;28;20488;-77
2021/06/08 03:59:34;;;;;;;33.40;28.00;;;;;;;16.48;100.00;155594.16;5095676;28;20483;-77
2021/06/08 04:02:09;;;;;;;35.97;26.33;;;;;;;16.47;100.00;155592.88;5062283;28;20443;-77
2021/06/08 04:04:43;;;;;;;31.73;27.40;;;;;;;16.44;100.00;155586.38;5054704;28;20450;-77
2021/06/08 04:07:19;;;;;;;33.60;30.00;;;;;;;16.40;100.00;155574.66;5050015;28;20459;-77
2021/06/08 04:09:54;;;;;;;34.07;29.33;;;;;;;16.44;100.00;155585.09;5050934;28;20451;-77
2021/06/08 04:12:29;;;;;;;37.10;28.10;;;;;;;16.47;100.00;155592.88;5052210;28;20451;-77
2021/06/08 04:15:08;;;;;;;32.30;28.00;;;;;;;16.45;100.00;155588.97;5069672;28;20449;-77
2021/06/08 04:17:43;;;;;;;33.17;27.47;;;;;;;16.45;100.00;155587.66;5066592;28;20827;-78
2021/06/08 04:20:19;;;;;;;36.47;30.10;;;;;;;16.40;100.00;155574.66;5048015;28;20479;-77
2021/06/08 04:22:55;;;;;;;36.10;30.10;;;;;;;16.38;100.00;155570.78;5051247;28;20447;-77
2021/06/08 04:25:30;;;;;;;38.37;30.10;;;;;;;16.38;100.00;155570.78;5061564;28;20955;-77
2021/06/08 04:28:05;;;;;;;35.27;28.47;;;;;;;16.41;100.00;155578.56;5055297;28;20450;-77
2021/06/08 04:30:42;;;;;;;33.23;27.47;;;;;;;16.44;100.00;155585.09;5055056;28;20451;-77
2021/06/08 04:33:20;;;;;;;34.70;28.03;;;;;;;16.45;100.00;155587.66;5063335;28;20442;-77
2021/06/08 04:35:56;;;;;;;33.70;28.63;;;;;;;16.42;100.00;155579.88;5069262;28;20438;-77
2021/06/08 04:38:31;;;;;;;33.60;29.00;;;;;;;16.36;100.00;155564.28;5101295;28;20454;-77
2021/06/08 04:41:07;;;;;;;35.00;27.73;;;;;;;16.40;100.00;155574.66;5059819;28;20439;-77
2021/06/08 04:43:42;;;;;;;32.03;28.53;;;;;;;16.37;100.00;155566.84;5061600;28;20449;-77
2021/06/08 04:46:18;;;;;;;32.80;29.00;;;;;;;16.40;100.00;155575.97;5063581;28;20441;-77
2021/06/08 04:48:54;;;;;;;34.67;29.53;;;;;;;16.44;100.00;155586.38;5070139;28;20525;-77
2021/06/08 04:51:29;;;;;;;33.03;28.43;;;;;;;16.43;100.00;155582.47;5061284;28;20450;-77
2021/06/08 04:54:04;;;;;;;35.27;28.30;;;;;;;16.47;100.00;155591.59;5052381;28;20823;-77
2021/06/08 04:56:39;;;;;;;31.57;27.87;;;;;;;16.49;100.00;155596.78;5054393;28;20937;-77
2021/06/08 04:59:17;;;;;;;36.03;27.30;;;;;;;16.47;100.00;155592.88;5062247;28;20471;-77
2021/06/08 05:01:54;;;;;;;32.30;27.03;;;;;;;16.47;100.00;155591.59;5052365;28;20451;-77
2021/06/08 05:04:31;;;;;;;33.67;27.60;;;;;;;16.46;100.00;155590.28;5050921;28;20467;-77
2021/06/08 05:07:08;;;;;;;36.30;29.50;;;;;;;16.42;100.00;155579.88;5067122;28;20934;-77
2021/06/08 05:09:50;;;;;;;35.13;29.53;;;;;;;16.35;100.00;155561.66;5071436;28;20929;-77
2021/06/08 05:12:25;;;;;;;38.47;28.97;;;;;;;16.38;100.00;155569.47;5067461;28;20443;-77
2021/06/08 05:15:02;;;;;;;38.37;31.20;;;;;;;16.41;100.00;155577.28;5066661;28;20462;-77
2021/06/08 05:17:39;;;;;;;37.80;30.50;;;;;;;16.38;100.00;155570.78;5036320;28;20443;-77
2021/06/08 05:20:14;;;;;;;35.53;30.77;;;;;;;16.38;100.00;155569.47;5059153;28;20923;-77
2021/06/08 05:22:50;;;;;;;38.90;30.73;;;;;;;16.41;100.00;155577.28;5049867;28;20446;-77
2021/06/08 05:25:29;;;;;;;34.83;28.73;;;;;;;16.44;100.00;155585.09;5081438;28;20483;-77
2021/06/08 05:28:05;;;;;;;37.00;29.87;;;;;;;16.39;100.00;155573.34;5033938;28;20434;-77
2021/06/08 05:30:40;;;;;;;39.40;29.67;;;;;;;16.41;100.00;155577.28;5033262;28;20451;-77
2021/06/08 05:33:20;;;;;;;37.57;30.10;;;;;;;16.45;100.00;155587.66;5035103;28;20981;-77
2021/06/08 05:35:56;;;;;;;41.43;30.43;;;;;;;16.50;100.00;155599.38;5053087;28;20824;-77
2021/06/08 05:38:33;;;;;;;37.30;29.60;;;;;;;16.46;100.00;155590.28;5065370;28;20992;-78
2021/06/08 05:41:10;;;;;;;36.33;29.13;;;;;;;16.50;100.00;155600.66;5045463;28;20427;-78
2021/06/08 05:43:44;;;;;;;30.73;27.40;;;;;;;16.52;100.00;155604.59;5086896;28;20537;-78
2021/06/08 05:46:20;;;;;;;34.17;29.50;;;;;;;16.49;100.00;155598.09;5053602;28;20533;-78
2021/06/08 05:48:57;;;;;;;30.90;27.17;;;;;;;16.48;100.00;155595.47;5057465;28;20457;-77
2021/06/08 05:51:33;;;;;;;32.30;28.90;;;;;;;16.50;100.00;155599.38;5074168;28;20445;-77
2021/06/08 05:54:09;;;;;;;38.03;30.50;;;;;;;16.42;100.00;155579.88;5039480;28;20457;-77
2021/06/08 05:56:44;;;;;;;37.93;30.10;;;;;;;16.44;100.00;155586.38;5053620;28;20443;-77
2021/06/08 05:59:19;;;;;;;38.10;29.80;;;;;;;16.51;100.00;155601.97;5073472;28;20840;-77
2021/06/08 06:01:54;;;;;;;35.43;29.10;;;;;;;16.49;100.00;155598.09;5073307;28;20468;-77
2021/06/08 06:04:31;;;;;;;41.63;30.87;;;;;;;16.51;100.00;155603.28;5073775;28;20481;-77
2021/06/08 06:07:06;;;;;;;35.80;31.07;;;;;;;16.52;100.00;155605.88;5056295;28;20453;-77
2021/06/08 06:09:42;;;;;;;35.40;29.63;;;;;;;16.54;100.00;155609.84;5072783;28;21194;-78
2021/06/08 06:12:17;;;;;;;41.27;31.67;;;;;;;16.57;100.00;155617.66;5061421;28;20950;-78
2021/06/08 06:15:01;;;;;;;38.70;29.07;;;;;;;16.59;100.00;155622.84;5053820;28;20457;-77
2021/06/08 06:17:38;;;;;;;35.60;29.30;;;;;;;16.58;100.00;155621.53;5057169;28;20438;-78
2021/06/08 06:20:15;;;;;;;35.33;29.10;;;;;;;16.58;100.00;155621.53;5053832;28;20961;-77
2021/06/08 06:22:50;;;;;;;33.80;29.00;;;;;;;16.55;100.00;155613.72;5056042;28;20450;-78
2021/06/08 06:25:25;;;;;;;34.50;29.80;;;;;;;16.57;100.00;155617.66;5075004;28;20470;-77
2021/06/08 06:28:01;;;;;;;35.07;29.60;;;;;;;16.55;100.00;155613.72;5072724;28;20504;-77
2021/06/08 06:30:36;;;;;;;39.97;29.80;;;;;;;16.54;100.00;155611.16;5055950;28;20545;-78
2021/06/08 06:33:11;;;;;;;40.07;30.43;;;;;;;16.54;100.00;155609.84;5073384;28;20461;-77
2021/06/08 06:35:47;;;;;;;35.87;29.37;;;;;;;16.61;100.00;155629.34;5073941;28;20925;-77
2021/06/08 06:38:22;;;;;;;33.40;28.67;;;;;;;16.58;100.00;155620.22;5062325;28;20446;-77
2021/06/08 06:41:01;;;;;;;37.07;30.10;;;;;;;16.56;100.00;155616.34;5060108;28;20463;-77
2021/06/08 06:43:36;;;;;;;37.23;30.57;;;;;;;16.58;100.00;155620.22;5054164;28;20451;-77
2021/06/08 06:46:11;;;;;;;35.80;29.70;;;;;;;16.57;100.00;155618.97;5053146;28;20446;-77
2021/06/08 06:48:47;;;;;;;32.63;29.13;;;;;;;16.66;100.00;155641.03;5052706;28;20446;-77
2021/06/08 06:51:24;;;;;;;34.80;29.80;;;;;;;16.74;100.00;155661.88;5067686;28;20438;-77
2021/06/08 06:53:59;;;;;;;33.80;29.47;;;;;;;16.72;100.00;155657.97;5072642;28;20457;-77
2021/06/08 06:56:35;;;;;;;36.27;29.67;;;;;;;16.64;100.00;155637.16;5059619;28;20450;-77
2021/06/08 06:59:10;;;;;;;34.40;28.23;;;;;;;16.65;100.00;155639.78;5067000;28;20965;-78
2021/06/08 07:01:46;;;;;;;34.53;29.50;;;;;;;16.58;100.00;155621.53;5052823;28;20481;-78
2021/06/08 07:04:23;;;;;;;33.00;27.60;;;;;;;16.63;100.00;155633.22;5091380;28;20536;-78
2021/06/08 07:07:00;;;;;;;36.63;28.80;;;;;;;16.62;100.00;155631.97;5074081;28;20411;-78
2021/06/08 07:09:35;;;;;;;35.20;30.70;;;;;;;16.63;100.00;155634.53;5072060;28;20484;-77
2021/06/08 07:12:11;;;;;;;35.07;30.17;;;;;;;16.62;100.00;155631.97;5062381;28;20940;-77
2021/06/08 07:14:46;;;;;;;35.90;29.37;;;;;;;16.67;100.00;155643.66;5054942;28;20482;-78
2021/06/08 07:17:23;;;;;;;35.53;28.50;;;;;;;16.70;100.00;155652.78;5056644;28;20473;-78
2021/06/08 07:19:58;;;;;;;33.90;27.23;;;;;;;16.74;100.00;155663.16;5055807;28;20478;-78
2021/06/08 07:22:36;;;;;;;34.03;28.30;;;;;;;16.76;100.00;155668.38;5072517;28;20441;-78
2021/06/08 07:25:12;;;;;;;34.70;27.90;;;;;;;16.87;100.00;155695.69;5039884;28;20478;-78
2021/06/08 07:27:47;;;;;;;33.43;27.40;;;;;;;16.90;100.00;155704.81;5051692;28;20438;-78
2021/06/08 07:30:23;;;;;;;32.87;27.83;;;;;;;16.94;100.00;155715.19;5052212;28;20577;-78
2021/06/08 07:33:05;;;;;;;32.43;28.00;;;;;;;16.96;100.00;155719.13;5054479;28;20434;-78
2021/06/08 07:35:48;;;;;;;33.03;27.50;;;;;;;17.01;100.00;155733.44;5072095;28;20537;-78
2021/06/08 07:38:28;;;;;;;36.97;28.63;;;;;;;17.00;100.00;155730.81;5053464;28;20419;-78
2021/06/08 07:41:04;;;;;;;34.03;27.13;;;;;;;17.05;100.00;155743.81;5052183;28;20546;-78
2021/06/08 07:43:43;;;;;;;37.63;29.57;;;;;;;16.95;100.00;155717.81;5064147;28;20812;-78
2021/06/08 07:46:19;;;;;;;31.67;26.87;;;;;;;17.07;100.00;155746.44;5056301;28;20535;-78
2021/06/08 07:48:57;;;;;;;32.53;26.70;;;;;;;17.04;100.00;155739.94;5059657;28;20462;-78
2021/06/08 07:51:33;;;;;;;34.90;28.40;;;;;;;17.10;100.00;155755.56;5066491;28;20454;-78
2021/06/08 07:54:11;;;;;;;31.07;26.40;;;;;;;17.16;100.00;155771.16;5058008;28;20454;-78
2021/06/08 07:56:46;;;;;;;36.23;29.57;;;;;;;17.18;100.00;155775.09;5051640;28;20542;-78
2021/06/08 07:59:21;;;;;;;33.43;28.40;;;;;;;17.20;100.00;155780.28;5067712;28;20477;-78
2021/06/08 08:01:56;;;;;;;34.30;28.70;;;;;;;17.17;100.00;155772.47;5066532;28;20454;-78
2021/06/08 08:04:37;;;;;;;32.40;28.20;;;;;;;17.23;100.00;155789.41;5056834;28;20455;-78
2021/06/08 08:07:13;;;;;;;32.57;27.60;;;;;;;17.11;100.00;155756.84;5071567;28;20810;-78
2021/06/08 08:09:49;;;;;;;34.07;27.60;;;;;;;17.15;100.00;155767.28;5070796;28;20481;-78
2021/06/08 08:12:24;;;;;;;32.37;27.70;;;;;;;17.17;100.00;155772.47;5052020;28;20522;-78
2021/06/08 08:15:00;;;;;;;33.57;27.10;;;;;;;17.14;100.00;155764.66;5036246;28;20455;-78
2021/06/08 08:17:35;;;;;;;32.03;27.47;;;;;;;17.21;100.00;155782.91;5067136;28;20452;-78
2021/06/08 08:20:11;;;;;;;34.57;29.07;;;;;;;17.18;100.00;155776.41;5051788;28;20565;-78
2021/06/08 08:22:46;;;;;;;34.27;29.03;;;;;;;17.17;100.00;155772.47;5064689;28;20437;-78
2021/06/08 08:25:23;;;;;;;35.43;30.20;;;;;;;17.19;100.00;155777.66;5055413;28;20475;-78
2021/06/08 08:27:57;;;;;;;32.40;26.60;;;;;;;17.21;100.00;155784.16;5054453;28;20883;-78
2021/06/08 08:30:33;;;;;;;32.47;28.23;;;;;;;17.27;100.00;155799.78;5052672;28;20526;-78
2021/06/08 08:33:08;;;;;;;33.77;28.43;;;;;;;17.22;100.00;155786.78;5085148;28;20493;-78
2021/06/08 08:35:43;;;;;;;33.57;29.87;;;;;;;17.30;100.00;155806.28;5051312;28;20442;-78
2021/06/08 08:38:19;;;;;;;37.63;31.23;;;;;;;17.36;100.00;155823.25;5066834;28;20526;-78
2021/06/08 08:40:57;;;;;;;33.30;29.60;;;;;;;17.41;100.00;155834.94;5063450;28;20457;-77
2021/06/08 08:43:33;;;;;;;32.70;27.73;;;;;;;17.57;100.00;155876.66;5070929;28;20450;-78
2021/06/08 08:46:07;;;;;;;33.63;30.03;;;;;;;17.56;100.00;155875.34;5104028;28;20477;-78
2021/06/08 08:48:44;;;;;;;32.37;27.77;;;;;;;17.53;100.00;155866.22;5050875;28;20440;-78
2021/06/08 08:51:20;;;;;;;34.67;30.70;;;;;;;17.48;100.00;155853.16;5059879;28;20440;-78
2021/06/08 08:53:57;;;;;;;35.37;29.23;;;;;;;17.48;100.00;155853.16;5056052;28;20940;-78
2021/06/08 08:56:36;;;;;;;36.83;31.23;;;;;;;17.34;100.00;155816.72;5061519;28;20959;-78
2021/06/08 08:59:14;;;;;;;36.33;32.37;;;;;;;17.33;100.00;155815.44;5066862;28;20532;-78
2021/06/08 09:01:50;;;;;;;37.10;30.83;;;;;;;17.31;100.00;155810.22;5061827;28;20447;-78
2021/06/08 09:04:26;;;;;;;37.57;30.20;;;;;;;17.31;100.00;155810.22;5050978;28;20787;-78
2021/06/08 09:07:00;;;;;;;38.00;32.37;;;;;;;17.35;100.00;155820.63;5068428;28;20805;-78
2021/06/08 09:09:36;;;;;;;36.30;31.53;;;;;;;17.42;100.00;155837.56;5066041;28;20450;-78
2021/06/08 09:12:13;;;;;;;35.47;31.03;;;;;;;17.54;100.00;155870.16;5053691;28;20438;-78
2021/06/08 09:14:48;;;;;;;36.30;32.10;;;;;;;17.68;100.00;155905.28;5055101;28;20466;-78
2021/06/08 09:17:23;;;;;;;36.97;32.13;;;;;;;17.81;100.00;155939.16;5040446;28;20471;-78
2021/06/08 09:19:58;;;;;;;35.70;30.10;;;;;;;17.83;100.00;155943.03;5073398;28;20474;-78
2021/06/08 09:22:51;;;;;;;35.40;31.63;;;;;;;17.84;100.00;155946.97;5051836;28;20536;-78
2021/06/08 09:25:46;;;;;;;38.57;32.20;;;;;;;17.81;100.00;155939.16;5055449;28;20479;-78
2021/06/08 09:28:26;;;;;;;35.63;30.83;;;;;;;17.82;100.00;155941.72;5059746;28;20437;-78
2021/06/08 09:31:04;;;;;;;34.23;29.43;;;;;;;17.96;100.00;155978.19;5061361;28;20443;-78
2021/06/08 09:33:40;;;;;;;33.90;29.53;;;;;;;17.98;100.00;155983.38;5053981;28;20476;-78
2021/06/08 09:36:17;;;;;;;35.90;31.30;;;;;;;18.04;100.00;155999.03;5054840;28;20443;-78
2021/06/08 09:38:53;;;;;;;36.30;31.33;;;;;;;18.08;100.00;156009.41;5070940;28;20462;-78
2021/06/08 09:41:31;;;;;;;38.20;32.20;;;;;;;18.07;100.00;156006.84;5054086;28;20804;-78
2021/06/08 09:44:10;;;;;;;35.90;32.00;;;;;;;18.10;100.00;156014.66;5055552;28;20479;-78
2021/06/08 09:46:47;;;;;;;37.00;32.30;;;;;;;18.20;100.00;156040.69;5070671;28;20445;-78
2021/06/08 09:49:34;;;;;;;34.37;29.97;;;;;;;18.45;100.00;156103.22;5046035;28;20450;-78
2021/06/08 09:52:10;;;;;;;36.10;31.20;;;;;;;18.64;100.00;156152.75;5097921;28;20457;-78
2021/06/08 09:54:46;;;;;;;34.83;30.67;;;;;;;18.80;100.00;156195.75;5088897;28;20447;-78
2021/06/08 09:57:23;;;;;;;33.27;29.67;;;;;;;19.02;100.00;156250.47;5057657;28;20450;-77
2021/06/08 10:00:00;;;;;;;33.40;29.43;;;;;;;19.13;100.00;156279.16;5057479;28;20521;-78
2021/06/08 10:02:38;;;;;;;34.37;30.90;;;;;;;18.91;99.04;156223.09;5058442;28;20434;-78
2021/06/08 10:05:19;;;;;;;35.20;31.40;;;;;;;18.89;99.15;156216.59;5073049;28;20458;-78
2021/06/08 10:08:06;;;;;;;37.80;32.60;;;;;;;19.10;100.00;156272.63;5060665;28;20479;-78
2021/06/08 10:10:44;;;;;;;33.03;29.67;;;;;;;19.32;100.00;156330.00;5059067;28;20443;-78
2021/06/08 10:13:20;;;;;;;34.83;31.10;;;;;;;19.23;95.53;156306.53;5070013;28;20442;-77
2021/06/08 10:15:59;;;;;;;34.37;30.47;;;;;;;19.13;95.93;156280.47;5046901;28;20450;-77
2021/06/08 10:18:42;;;;;;;33.23;27.37;;;;;;;19.24;100.00;156309.13;5057692;28;20434;-77
2021/06/08 10:21:32;;;;;;;33.67;30.23;;;;;;;19.27;97.64;156315.66;5053405;28;20466;-77
2021/06/08 10:24:10;;;;;;;30.73;27.47;;;;;;;19.49;99.43;156371.72;5053259;28;20459;-77
2021/06/08 10:26:50;;;;;;;33.17;29.67;;;;;;;19.60;94.34;156401.72;5054765;28;20477;-77
2021/06/08 10:29:26;;;;;;;31.23;27.93;;;;;;;19.67;98.08;156419.94;5053501;28;20459;-77
2021/06/08 10:32:03;;;;;;;30.03;26.63;;;;;;;19.71;95.62;156429.09;5041120;28;20913;-77
2021/06/08 10:34:39;;;;;;;32.23;28.97;;;;;;;19.75;94.34;156439.56;5069266;28;20776;-77
2021/06/08 10:37:18;;;;;;;31.20;28.07;;;;;;;19.59;91.63;156397.81;5063077;28;20497;-77
2021/06/08 10:39:55;;;;;;;32.27;28.87;;;;;;;19.64;94.29;156410.84;5073996;28;20560;-77
2021/06/08 10:42:31;;;;;;;32.73;27.10;;;;;;;19.72;93.21;156431.72;5072339;28;20434;-77
2021/06/08 10:45:09;;;;;;;29.90;26.70;;;;;;;19.97;94.23;156496.88;5063409;28;20541;-77
2021/06/08 10:47:53;;;;;;;29.30;26.30;;;;;;;20.21;93.77;156558.19;5037534;28;20569;-77
2021/06/08 10:50:29;;;;;;;31.07;27.50;;;;;;;19.99;89.34;156503.41;5053299;28;20450;-77
2021/06/08 10:53:06;;;;;;;32.43;29.07;;;;;;;19.88;89.96;156474.69;5055740;28;20510;-77
2021/06/08 10:55:41;;;;;;;31.70;26.90;;;;;;;20.06;91.16;156520.38;5064271;28;20478;-77
2021/06/08 10:58:42;;;;;;;31.07;27.77;;;;;;;19.93;88.92;156487.78;5068992;28;20438;-77
2021/06/08 11:01:43;;;;;;;30.77;27.50;;;;;;;19.96;90.55;156495.56;5073348;28;20564;-77
2021/06/08 11:04:23;;;;;;;32.20;28.77;;;;;;;20.30;91.66;156583.03;5063665;28;20550;-77
2021/06/08 11:07:00;;;;;;;27.73;24.87;;;;;;;20.39;91.13;156606.47;5057558;28;20907;-77
2021/06/08 11:09:36;;;;;;;29.77;26.77;;;;;;;20.05;89.46;156517.75;5073117;28;20441;-77
2021/06/08 11:12:24;;;;;;;31.00;27.80;;;;;;;20.26;92.26;156572.56;5071397;28;20438;-77
2021/06/08 11:14:59;;;;;;;31.10;27.67;;;;;;;20.27;89.10;156575.19;5105760;28;20434;-77
2021/06/08 11:17:40;;;;;;;29.13;26.30;;;;;;;20.37;90.54;156601.28;5049884;28;20926;-77
2021/06/08 11:20:22;;;;;;;31.97;28.87;;;;;;;20.04;88.49;156515.19;5053057;28;20471;-77
2021/06/08 11:23:02;;;;;;;30.17;27.00;;;;;;;20.10;89.83;156530.78;5067889;28;20443;-77
2021/06/08 11:25:47;;;;;;;31.03;27.93;;;;;;;20.18;88.84;156551.66;5054451;28;20498;-77
2021/06/08 11:28:23;;;;;;;28.60;25.60;;;;;;;20.29;89.71;156580.41;5052478;28;20451;-77
2021/06/08 11:30:59;;;;;;;30.37;27.27;;;;;;;20.37;88.78;156599.97;5061981;28;20457;-77
2021/06/08 11:33:39;;;;;;;27.70;24.90;;;;;;;20.54;88.37;156645.59;5051082;28;20760;-77
2021/06/08 11:36:36;;;;;;;30.40;26.90;;;;;;;20.31;88.13;156584.31;5072184;28;20438;-77
2021/06/08 11:39:26;;;;;;;28.40;25.33;;;;;;;20.33;87.56;156589.56;5071642;28;20841;-77
2021/06/08 11:42:03;;;;;;;32.23;28.83;;;;;;;20.38;87.51;156603.91;5046496;28;20451;-77
2021/06/08 11:44:38;;;;;;;31.60;27.17;;;;;;;20.43;90.04;156616.94;5053431;28;20518;-77
2021/06/08 11:47:13;;;;;;;28.40;25.50;;;;;;;20.51;89.10;156636.50;5064724;28;20437;-77